Terminal Aerodrome Forecast
Issued by NWS Twin Cities, MN

Home | Current Version | Previous Version | Graphics & Text | Print | Product List | Glossary On
Versions: 1 2 3 4 5 6 7 8 9 10 11 12 13 14 15 16 17 18
745
FTUS43 KMPX 202337
TAFSTC
TAF
KSTC 202337Z 2100/2124 14006KT 1/2SM FG VV002
     FM211200 08004KT 1/2SM -RA FG OVC003
     FM212100 03003KT 2SM -DZ BR OVC004=

USA.gov is the U.S. government's official web portal to all federal, state and local government web resources and services.